McCutchanville, Indiana
Current Conditions -  °F | °C
As of 9:54 AM on Thursday 27 Nov 2014 (Local Time) from KEVV Reporting Station
Scattered Clouds Scattered Clouds  
Wind Chill: 22°   Ceiling: Unl
Heat Index: 30°   Visibility: 8mi
Dew Point: 22°   Wind: 9mph
Humidity: 72%   Direction: 300°WNW
Pressure: 30.45"   Gusts: NA
Location:  38.1195°N, 87.5368°W
Report Text: KEVV 271554Z 30008KT 8SM SCT016 M01/M06 A3045 RMK AO2 SLP317 T10111056
Loading
Personal Weather Stations






























Interactive Weather Map New forecast layout! Learn more

10-Day Weather Forecast

Advertisements
Track Severe Weather on mobile